createdAt,value
2017-09-24T00:00:24.213Z,993.56
2017-09-24T00:01:21.473Z,993.57
2017-09-24T00:02:18.726Z,993.57
2017-09-24T00:03:15.945Z,993.59
2017-09-24T00:04:13.199Z,993.59
2017-09-24T00:05:10.678Z,993.56
2017-09-24T00:06:07.947Z,993.59
2017-09-24T00:07:05.627Z,993.52
2017-09-24T00:08:02.893Z,993.57
2017-09-24T00:09:00.124Z,993.54
2017-09-24T00:09:57.398Z,993.52
2017-09-24T00:10:54.646Z,993.56
2017-09-24T00:11:51.946Z,993.46
2017-09-24T00:12:49.179Z,993.53
2017-09-24T00:13:46.547Z,993.52
2017-09-24T00:14:43.787Z,993.49
2017-09-24T00:15:41.059Z,993.57
2017-09-24T00:16:38.318Z,993.59
2017-09-24T00:17:35.569Z,993.51
2017-09-24T00:18:32.819Z,993.47
2017-09-24T00:19:30.097Z,993.41
2017-09-24T00:20:27.343Z,993.53
2017-09-24T00:21:24.657Z,993.51
2017-09-24T00:22:21.905Z,993.52
2017-09-24T00:23:19.170Z,993.46
2017-09-24T00:24:16.413Z,993.51
2017-09-24T00:25:15.717Z,993.46
2017-09-24T00:26:13.021Z,993.47
2017-09-24T00:27:10.363Z,993.47
2017-09-24T00:28:07.661Z,993.47
2017-09-24T00:29:04.994Z,993.50
2017-09-24T00:30:02.290Z,993.51
2017-09-24T00:30:59.643Z,993.48
2017-09-24T00:31:57.004Z,993.49
2017-09-24T00:32:54.348Z,993.46
2017-09-24T00:33:51.641Z,993.53
2017-09-24T00:34:48.953Z,993.45
2017-09-24T00:35:46.250Z,993.52
2017-09-24T00:36:45.567Z,993.50
2017-09-24T00:37:42.831Z,993.52
2017-09-24T00:38:40.094Z,993.51
2017-09-24T00:39:37.385Z,993.48
2017-09-24T00:40:34.660Z,993.41
2017-09-24T00:41:31.917Z,993.46
2017-09-24T00:42:29.205Z,993.49
2017-09-24T00:43:26.425Z,993.52
2017-09-24T00:44:23.685Z,993.56
2017-09-24T00:45:20.915Z,993.48
2017-09-24T00:46:18.190Z,993.44
2017-09-24T00:47:15.453Z,993.52
2017-09-24T00:48:12.818Z,993.50
2017-09-24T00:49:10.041Z,993.53
2017-09-24T00:50:07.303Z,993.49
2017-09-24T00:51:04.545Z,993.42
2017-09-24T00:52:01.790Z,993.47
2017-09-24T00:52:59.029Z,993.48
2017-09-24T00:53:56.288Z,993.49
2017-09-24T00:54:53.537Z,993.48
2017-09-24T00:55:50.810Z,993.47
2017-09-24T00:56:48.074Z,993.52
2017-09-24T00:57:45.373Z,993.51
2017-09-24T00:58:42.601Z,993.48
2017-09-24T00:59:39.854Z,993.50
2017-09-24T01:00:37.145Z,993.46
2017-09-24T01:01:34.389Z,993.42
2017-09-24T01:02:31.688Z,993.46
2017-09-24T01:03:28.940Z,993.51
2017-09-24T01:04:26.198Z,993.41
2017-09-24T01:05:23.473Z,993.45
2017-09-24T01:06:20.697Z,993.38
2017-09-24T01:07:17.976Z,993.45
2017-09-24T01:08:15.225Z,993.41
2017-09-24T01:09:12.504Z,993.44
2017-09-24T01:10:10.421Z,993.47
2017-09-24T01:11:07.793Z,993.45
2017-09-24T01:12:05.378Z,993.39
2017-09-24T01:13:02.673Z,993.41
2017-09-24T01:13:59.936Z,993.40
2017-09-24T01:14:57.202Z,993.39
2017-09-24T01:15:54.441Z,993.40
2017-09-24T01:16:51.714Z,993.41
2017-09-24T01:17:48.942Z,993.41
2017-09-24T01:18:46.218Z,993.43
2017-09-24T01:19:43.468Z,993.42
2017-09-24T01:20:40.752Z,993.37
2017-09-24T01:21:38.032Z,993.44
2017-09-24T01:22:35.274Z,993.44
2017-09-24T01:23:32.528Z,993.40
2017-09-24T01:24:29.786Z,993.37
2017-09-24T01:25:27.025Z,993.41
2017-09-24T01:26:24.291Z,993.40
2017-09-24T01:27:21.523Z,993.45
2017-09-24T01:28:19.264Z,993.43
2017-09-24T01:29:16.487Z,993.41
2017-09-24T01:30:13.750Z,993.39
2017-09-24T01:31:10.993Z,993.38
2017-09-24T01:32:08.250Z,993.33
2017-09-24T01:33:05.496Z,993.36
2017-09-24T01:34:03.062Z,993.40
2017-09-24T01:35:00.311Z,993.43
2017-09-24T01:35:57.609Z,993.37
2017-09-24T01:36:54.843Z,993.43
2017-09-24T01:37:52.189Z,993.45
2017-09-24T01:38:49.450Z,993.35
2017-09-24T01:39:47.162Z,993.42
2017-09-24T01:40:44.393Z,993.40
2017-09-24T01:41:41.630Z,993.38
2017-09-24T01:42:38.875Z,993.35
2017-09-24T01:43:36.133Z,993.40
2017-09-24T01:44:33.390Z,993.49
2017-09-24T01:45:30.651Z,993.48
2017-09-24T01:46:27.869Z,993.43
2017-09-24T01:47:25.121Z,993.44
2017-09-24T01:48:22.355Z,993.48
2017-09-24T01:49:19.644Z,993.42
2017-09-24T01:50:16.886Z,993.43
2017-09-24T01:51:14.153Z,993.44
2017-09-24T01:52:11.478Z,993.49
2017-09-24T01:53:08.740Z,993.44
2017-09-24T01:54:06.006Z,993.44
2017-09-24T01:55:03.308Z,993.40
2017-09-24T01:56:00.549Z,993.50
2017-09-24T01:56:57.816Z,993.46
2017-09-24T01:57:55.067Z,993.39
2017-09-24T01:58:52.354Z,993.45
2017-09-24T01:59:49.605Z,993.50
2017-09-24T02:00:46.876Z,993.42
2017-09-24T02:01:44.097Z,993.39
2017-09-24T02:02:41.349Z,993.42
2017-09-24T02:03:38.569Z,993.40
2017-09-24T02:04:35.834Z,993.41
2017-09-24T02:05:33.061Z,993.39
2017-09-24T02:06:30.314Z,993.43
2017-09-24T02:07:27.557Z,993.41
2017-09-24T02:08:24.812Z,993.43
2017-09-24T02:09:22.073Z,993.43
2017-09-24T02:10:19.340Z,993.40
2017-09-24T02:11:16.554Z,993.42
2017-09-24T02:12:13.814Z,993.41
2017-09-24T02:13:11.042Z,993.40
2017-09-24T02:14:08.314Z,993.39
2017-09-24T02:15:05.552Z,993.43
2017-09-24T02:16:02.806Z,993.39
2017-09-24T02:17:00.054Z,993.42
2017-09-24T02:17:57.330Z,993.39
2017-09-24T02:18:54.563Z,993.48
2017-09-24T02:19:51.862Z,993.49
2017-09-24T02:20:49.090Z,993.41
2017-09-24T02:21:46.345Z,993.42
2017-09-24T02:22:43.562Z,993.48
2017-09-24T02:23:40.816Z,993.45
2017-09-24T02:24:38.037Z,993.48
2017-09-24T02:25:35.302Z,993.42
2017-09-24T02:26:32.522Z,993.37
2017-09-24T02:27:29.778Z,993.35
2017-09-24T02:28:27.006Z,993.39
2017-09-24T02:29:24.265Z,993.43
2017-09-24T02:30:21.541Z,993.42
2017-09-24T02:31:18.793Z,993.42
2017-09-24T02:32:16.001Z,993.46
2017-09-24T02:33:13.266Z,993.45
2017-09-24T02:34:10.530Z,993.38
2017-09-24T02:35:07.828Z,993.41
2017-09-24T02:36:05.071Z,993.40
2017-09-24T02:37:02.325Z,993.38
2017-09-24T02:37:59.566Z,993.37
2017-09-24T02:38:56.836Z,993.33
2017-09-24T02:39:54.248Z,993.36
2017-09-24T02:40:51.522Z,993.31
2017-09-24T02:41:48.758Z,993.34
2017-09-24T02:42:46.093Z,993.37
2017-09-24T02:43:43.317Z,993.37
2017-09-24T02:44:40.582Z,993.40
2017-09-24T02:45:37.854Z,993.39
2017-09-24T02:46:35.153Z,993.34
2017-09-24T02:47:32.385Z,993.42
2017-09-24T02:48:29.643Z,993.42
2017-09-24T02:49:26.873Z,993.40
2017-09-24T02:50:24.149Z,993.43
2017-09-24T02:51:21.361Z,993.49
2017-09-24T02:52:18.654Z,993.53
2017-09-24T02:53:15.951Z,993.46
2017-09-24T02:54:13.232Z,993.45
2017-09-24T02:55:10.475Z,993.42
2017-09-24T02:56:07.761Z,993.50
2017-09-24T02:57:04.999Z,993.46
2017-09-24T02:58:02.277Z,993.40
2017-09-24T02:58:59.510Z,993.51
2017-09-24T02:59:56.789Z,993.50
2017-09-24T03:00:54.037Z,993.48
2017-09-24T03:01:51.297Z,993.50
2017-09-24T03:02:48.518Z,993.48
2017-09-24T03:03:45.778Z,993.48
2017-09-24T03:04:43.015Z,993.50
2017-09-24T03:05:40.265Z,993.41
2017-09-24T03:06:37.495Z,993.47
2017-09-24T03:07:34.760Z,993.45
2017-09-24T03:08:32.029Z,993.48
2017-09-24T03:09:29.297Z,993.46
2017-09-24T03:10:26.549Z,993.43
2017-09-24T03:11:23.828Z,993.47
2017-09-24T03:12:21.070Z,993.42
2017-09-24T03:13:18.318Z,993.47
2017-09-24T03:14:15.557Z,993.43
2017-09-24T03:15:13.173Z,993.41
2017-09-24T03:16:10.425Z,993.40
2017-09-24T03:17:07.702Z,993.42
2017-09-24T03:18:04.959Z,993.43
2017-09-24T03:19:02.237Z,993.42
2017-09-24T03:19:59.458Z,993.48
2017-09-24T03:20:56.721Z,993.43
2017-09-24T03:21:53.969Z,993.47
2017-09-24T03:22:51.243Z,993.49
2017-09-24T03:23:48.481Z,993.48
2017-09-24T03:24:45.730Z,993.51
2017-09-24T03:25:42.963Z,993.50
2017-09-24T03:26:40.239Z,993.53
2017-09-24T03:27:37.508Z,993.47
2017-09-24T03:28:34.822Z,993.51
2017-09-24T03:29:32.057Z,993.43
2017-09-24T03:30:29.313Z,993.49
2017-09-24T03:31:26.563Z,993.46
2017-09-24T03:32:23.814Z,993.43
2017-09-24T03:33:21.050Z,993.47
2017-09-24T03:34:18.289Z,993.45
2017-09-24T03:35:15.533Z,993.42
2017-09-24T03:36:12.789Z,993.48
2017-09-24T03:37:10.030Z,993.43
2017-09-24T03:38:07.286Z,993.45
2017-09-24T03:39:04.591Z,993.44
2017-09-24T03:40:01.963Z,993.42
2017-09-24T03:40:59.189Z,993.43
2017-09-24T03:41:56.482Z,993.42
2017-09-24T03:42:53.710Z,993.41
2017-09-24T03:43:50.965Z,993.44
2017-09-24T03:44:48.174Z,993.37
2017-09-24T03:45:45.530Z,993.36
2017-09-24T03:46:42.793Z,993.39
2017-09-24T03:47:40.061Z,993.38
2017-09-24T03:48:37.279Z,993.45
2017-09-24T03:49:34.525Z,993.33
2017-09-24T03:50:31.749Z,993.44
2017-09-24T03:51:29.001Z,993.38
2017-09-24T03:52:26.244Z,993.43
2017-09-24T03:53:23.493Z,993.42
2017-09-24T03:54:20.697Z,993.41
2017-09-24T03:55:17.938Z,993.40
2017-09-24T03:56:15.181Z,993.37
2017-09-24T03:57:12.452Z,993.32
2017-09-24T03:58:09.662Z,993.33
2017-09-24T03:59:06.925Z,993.41
2017-09-24T04:00:04.145Z,993.41
2017-09-24T04:01:01.406Z,993.31
2017-09-24T04:01:58.671Z,993.36
2017-09-24T04:02:55.926Z,993.34
2017-09-24T04:03:53.145Z,993.34
2017-09-24T04:04:50.410Z,993.37
2017-09-24T04:05:47.654Z,993.35
2017-09-24T04:06:44.914Z,993.31
2017-09-24T04:07:42.179Z,993.32
2017-09-24T04:08:39.435Z,993.32
2017-09-24T04:09:36.654Z,993.36
2017-09-24T04:10:33.911Z,993.35
2017-09-24T04:11:31.178Z,993.30
2017-09-24T04:12:28.457Z,993.35
2017-09-24T04:13:25.690Z,993.35
2017-09-24T04:14:22.937Z,993.39
2017-09-24T04:15:20.223Z,993.33
2017-09-24T04:16:17.469Z,993.37
2017-09-24T04:17:14.698Z,993.37
2017-09-24T04:18:11.969Z,993.32
2017-09-24T04:19:09.213Z,993.37
2017-09-24T04:20:06.578Z,993.36
2017-09-24T04:21:03.821Z,993.31
2017-09-24T04:22:01.090Z,993.32
2017-09-24T04:22:58.349Z,993.34
2017-09-24T04:23:55.593Z,993.42
2017-09-24T04:24:52.807Z,993.35
2017-09-24T04:25:50.136Z,993.32
2017-09-24T04:26:47.355Z,993.31
2017-09-24T04:27:44.646Z,993.34
2017-09-24T04:28:41.902Z,993.34
2017-09-24T04:29:39.150Z,993.37
2017-09-24T04:30:36.390Z,993.31
2017-09-24T04:31:33.660Z,993.34
2017-09-24T04:32:30.897Z,993.28
2017-09-24T04:33:28.179Z,993.40
2017-09-24T04:34:25.409Z,993.32
2017-09-24T04:35:22.662Z,993.34
2017-09-24T04:36:19.942Z,993.33
2017-09-24T04:37:17.485Z,993.32
2017-09-24T04:38:14.737Z,993.36
2017-09-24T04:39:12.003Z,993.40
2017-09-24T04:40:09.244Z,993.33
2017-09-24T04:41:06.509Z,993.36
2017-09-24T04:42:03.726Z,993.32
2017-09-24T04:43:01.003Z,993.37
2017-09-24T04:43:58.281Z,993.37
2017-09-24T04:44:55.560Z,993.37
2017-09-24T04:45:52.797Z,993.45
2017-09-24T04:46:50.061Z,993.41
2017-09-24T04:47:47.406Z,993.41
2017-09-24T04:48:44.701Z,993.45
2017-09-24T04:49:41.941Z,993.44
2017-09-24T04:50:39.219Z,993.47
2017-09-24T04:51:36.473Z,993.52
2017-09-24T04:52:33.741Z,993.52
2017-09-24T04:53:31.015Z,993.39
2017-09-24T04:54:28.292Z,993.50
2017-09-24T04:55:25.817Z,993.44
2017-09-24T04:56:23.217Z,993.46
2017-09-24T04:57:20.502Z,993.59
2017-09-24T04:58:17.769Z,993.54
2017-09-24T04:59:15.011Z,993.52
2017-09-24T05:00:12.279Z,993.51
2017-09-24T05:01:09.515Z,993.56
2017-09-24T05:02:06.790Z,993.51
2017-09-24T05:03:04.078Z,993.48
2017-09-24T05:04:01.556Z,993.51
2017-09-24T05:04:58.830Z,993.57
2017-09-24T05:05:56.115Z,993.54
2017-09-24T05:06:53.352Z,993.57
2017-09-24T05:07:50.617Z,993.58
2017-09-24T05:08:47.879Z,993.61
2017-09-24T05:09:45.180Z,993.53
2017-09-24T05:10:42.481Z,993.60
2017-09-24T05:11:40.086Z,993.55
2017-09-24T05:12:37.361Z,993.62
2017-09-24T05:13:34.625Z,993.62
2017-09-24T05:14:31.866Z,993.61
2017-09-24T05:15:29.117Z,993.68
2017-09-24T05:16:26.381Z,993.65
2017-09-24T05:17:23.645Z,993.66
2017-09-24T05:18:20.881Z,993.60
2017-09-24T05:19:18.197Z,993.67
2017-09-24T05:20:15.413Z,993.62
2017-09-24T05:21:12.696Z,993.66
2017-09-24T05:22:09.946Z,993.66
2017-09-24T05:23:07.310Z,993.70
2017-09-24T05:24:04.715Z,993.77
2017-09-24T05:25:01.998Z,993.77
2017-09-24T05:25:59.221Z,993.73
2017-09-24T05:26:56.474Z,993.82
2017-09-24T05:27:53.701Z,993.76
2017-09-24T05:28:50.942Z,993.86
2017-09-24T05:29:48.213Z,993.83
2017-09-24T05:30:45.514Z,993.86
2017-09-24T05:31:42.749Z,993.80
2017-09-24T05:32:40.042Z,993.86
2017-09-24T05:33:37.287Z,993.82
2017-09-24T05:34:34.591Z,993.82
2017-09-24T05:35:31.818Z,993.73
2017-09-24T05:36:29.070Z,993.76
2017-09-24T05:37:26.293Z,993.76
2017-09-24T05:38:23.555Z,993.68
2017-09-24T05:39:20.799Z,993.67
2017-09-24T05:40:18.417Z,993.74
2017-09-24T05:41:15.638Z,993.71
2017-09-24T05:42:12.886Z,993.78
2017-09-24T05:43:10.099Z,993.72
2017-09-24T05:44:07.344Z,993.80
2017-09-24T05:45:04.646Z,993.72
2017-09-24T05:46:01.928Z,993.72
2017-09-24T05:46:59.167Z,993.71
2017-09-24T05:47:56.421Z,993.79
2017-09-24T05:48:53.650Z,993.80
2017-09-24T05:49:50.954Z,993.82
2017-09-24T05:50:48.277Z,993.85
2017-09-24T05:51:45.794Z,993.79
2017-09-24T05:52:43.209Z,993.78
2017-09-24T05:53:40.567Z,993.76
2017-09-24T05:54:37.878Z,993.86
2017-09-24T05:55:35.233Z,993.89
2017-09-24T05:56:32.522Z,993.86
2017-09-24T05:57:29.969Z,993.85
2017-09-24T05:58:27.222Z,993.82
2017-09-24T05:59:24.469Z,993.74
2017-09-24T06:00:21.750Z,993.83
2017-09-24T06:01:19.045Z,993.79
2017-09-24T06:02:16.373Z,993.89
2017-09-24T06:03:13.721Z,993.77
2017-09-24T06:04:11.035Z,993.77
2017-09-24T06:05:08.326Z,993.82
2017-09-24T06:06:05.642Z,993.74
2017-09-24T06:07:02.954Z,993.77
2017-09-24T06:08:00.249Z,993.86
2017-09-24T06:08:57.655Z,993.82
2017-09-24T06:09:55.259Z,993.83
2017-09-24T06:10:52.682Z,993.89
2017-09-24T06:11:50.035Z,993.86
2017-09-24T06:12:47.286Z,993.87
2017-09-24T06:13:44.590Z,993.92
2017-09-24T06:14:42.129Z,993.91
2017-09-24T06:15:39.497Z,993.91
2017-09-24T06:16:36.759Z,993.90
2017-09-24T06:17:34.006Z,993.90
2017-09-24T06:18:31.273Z,993.89
2017-09-24T06:19:28.543Z,993.86
2017-09-24T06:20:25.881Z,993.86
2017-09-24T06:21:23.125Z,993.94
2017-09-24T06:22:20.399Z,993.95
2017-09-24T06:23:17.690Z,993.98
2017-09-24T06:24:15.085Z,993.88
2017-09-24T06:25:12.345Z,993.94
2017-09-24T06:26:09.669Z,993.93
2017-09-24T06:27:06.961Z,993.98
2017-09-24T06:28:04.370Z,993.87
2017-09-24T06:29:01.626Z,993.93
2017-09-24T06:29:58.913Z,993.90
2017-09-24T06:30:56.214Z,993.82
2017-09-24T06:31:53.590Z,993.93
2017-09-24T06:32:50.827Z,993.93
2017-09-24T06:33:48.193Z,994.00
2017-09-24T06:34:45.415Z,993.94
2017-09-24T06:35:42.724Z,993.91
2017-09-24T06:36:39.958Z,993.98
2017-09-24T06:37:37.281Z,993.93
2017-09-24T06:38:36.586Z,993.90
2017-09-24T06:39:33.834Z,993.95
2017-09-24T06:40:31.053Z,993.90
2017-09-24T06:41:28.357Z,994.01
2017-09-24T06:42:25.603Z,993.94
2017-09-24T06:43:22.872Z,993.90
2017-09-24T06:44:20.112Z,993.91
2017-09-24T06:45:17.437Z,993.92
2017-09-24T06:46:14.714Z,993.94
2017-09-24T06:47:12.065Z,993.91
2017-09-24T06:48:09.342Z,993.97
2017-09-24T06:49:06.616Z,993.98
2017-09-24T06:50:03.854Z,993.94
2017-09-24T06:51:01.130Z,993.99
2017-09-24T06:51:58.374Z,994.00
2017-09-24T06:52:55.634Z,993.96
2017-09-24T06:53:53.137Z,993.94
2017-09-24T06:54:50.402Z,993.93
2017-09-24T06:55:47.642Z,994.06
2017-09-24T06:56:44.910Z,993.99
2017-09-24T06:57:42.135Z,994.00
2017-09-24T06:58:39.398Z,993.99
2017-09-24T06:59:36.732Z,993.98
2017-09-24T07:00:34.230Z,993.98
2017-09-24T07:01:31.680Z,993.99
2017-09-24T07:02:28.947Z,993.99
2017-09-24T07:03:26.205Z,993.98
2017-09-24T07:04:23.514Z,994.02
2017-09-24T07:05:20.770Z,993.91
2017-09-24T07:06:20.069Z,993.97
2017-09-24T07:07:17.335Z,994.00
2017-09-24T07:08:14.596Z,994.01
2017-09-24T07:09:11.895Z,994.04
2017-09-24T07:10:09.145Z,994.06
2017-09-24T07:11:06.382Z,994.02
2017-09-24T07:12:03.664Z,994.08
2017-09-24T07:13:00.881Z,994.06
2017-09-24T07:13:58.137Z,994.08
2017-09-24T07:14:55.358Z,994.07
2017-09-24T07:15:52.622Z,994.19
2017-09-24T07:16:49.853Z,994.19
2017-09-24T07:17:47.121Z,994.25
2017-09-24T07:18:44.356Z,994.20
2017-09-24T07:19:41.601Z,994.24
2017-09-24T07:20:38.830Z,994.26
2017-09-24T07:21:36.098Z,994.31
2017-09-24T07:22:33.352Z,994.30
2017-09-24T07:23:30.596Z,994.29
2017-09-24T07:24:27.811Z,994.28
2017-09-24T07:25:25.076Z,994.26
2017-09-24T07:26:22.313Z,994.20
2017-09-24T07:27:19.609Z,994.33
2017-09-24T07:28:16.876Z,994.23
2017-09-24T07:29:14.138Z,994.18
2017-09-24T07:30:11.390Z,994.31
2017-09-24T07:31:08.734Z,994.24
2017-09-24T07:32:06.029Z,994.27
2017-09-24T07:33:03.309Z,994.29
2017-09-24T07:34:00.558Z,994.33
2017-09-24T07:34:59.849Z,994.35
2017-09-24T07:35:57.082Z,994.31
2017-09-24T07:36:54.336Z,994.29
2017-09-24T07:37:51.597Z,994.30
2017-09-24T07:38:48.869Z,994.33
2017-09-24T07:39:46.109Z,994.40
2017-09-24T07:40:43.514Z,994.32
2017-09-24T07:41:40.861Z,994.36
2017-09-24T07:42:38.229Z,994.30
2017-09-24T07:43:35.474Z,994.30
2017-09-24T07:44:32.722Z,994.23
2017-09-24T07:45:29.948Z,994.28
2017-09-24T07:46:27.209Z,994.25
2017-09-24T07:47:24.440Z,994.30
2017-09-24T07:48:21.714Z,994.26
2017-09-24T07:49:19.025Z,994.28
2017-09-24T07:50:16.274Z,994.26
2017-09-24T07:51:13.502Z,994.31
2017-09-24T07:52:10.946Z,994.34
2017-09-24T07:53:08.229Z,994.30
2017-09-24T07:54:05.486Z,994.36
2017-09-24T07:55:02.716Z,994.38
2017-09-24T07:55:59.972Z,994.37
2017-09-24T07:56:57.220Z,994.34
2017-09-24T07:57:54.541Z,994.30
2017-09-24T07:58:51.768Z,994.33
2017-09-24T07:59:49.009Z,994.34
2017-09-24T08:00:46.264Z,994.34
2017-09-24T08:01:43.521Z,994.26
2017-09-24T08:02:40.753Z,994.31
2017-09-24T08:03:38.036Z,994.36
2017-09-24T08:04:37.485Z,994.34
2017-09-24T08:05:34.756Z,994.31
2017-09-24T08:06:32.041Z,994.27
2017-09-24T08:07:29.361Z,994.30
2017-09-24T08:08:26.657Z,994.32
2017-09-24T08:09:23.934Z,994.39
2017-09-24T08:10:21.200Z,994.39
2017-09-24T08:11:18.529Z,994.42
2017-09-24T08:12:15.829Z,994.38
2017-09-24T08:13:13.108Z,994.34
2017-09-24T08:14:10.375Z,994.38
2017-09-24T08:15:07.726Z,994.35
2017-09-24T08:16:04.960Z,994.33
2017-09-24T08:17:02.230Z,994.36
2017-09-24T08:17:59.482Z,994.33
2017-09-24T08:18:56.764Z,994.42
2017-09-24T08:19:53.988Z,994.33
2017-09-24T08:20:51.245Z,994.39
2017-09-24T08:21:48.482Z,994.34
2017-09-24T08:22:45.746Z,994.35
2017-09-24T08:23:43.034Z,994.40
2017-09-24T08:24:40.317Z,994.38
2017-09-24T08:25:37.597Z,994.35
2017-09-24T08:26:34.873Z,994.37
2017-09-24T08:27:32.118Z,994.27
2017-09-24T08:28:29.594Z,994.32
2017-09-24T08:29:27.088Z,994.46
2017-09-24T08:30:24.417Z,994.45
2017-09-24T08:31:21.681Z,994.38
2017-09-24T08:32:19.011Z,994.38
2017-09-24T08:33:16.552Z,994.40
2017-09-24T08:34:14.076Z,994.35
2017-09-24T08:35:11.705Z,994.35
2017-09-24T08:36:09.097Z,994.37
2017-09-24T08:37:06.326Z,994.35
2017-09-24T08:38:03.622Z,994.42
2017-09-24T08:39:00.921Z,994.40
2017-09-24T08:39:58.260Z,994.35
2017-09-24T08:40:55.506Z,994.44
2017-09-24T08:41:52.786Z,994.37
2017-09-24T08:42:50.085Z,994.39
2017-09-24T08:43:47.352Z,994.37
2017-09-24T08:44:44.609Z,994.31
2017-09-24T08:45:41.885Z,994.35
2017-09-24T08:46:39.126Z,994.34
2017-09-24T08:47:36.381Z,994.32
2017-09-24T08:48:33.623Z,994.39
2017-09-24T08:49:30.892Z,994.41
2017-09-24T08:50:28.109Z,994.33
2017-09-24T08:51:25.437Z,994.35
2017-09-24T08:52:22.844Z,994.32
2017-09-24T08:53:20.158Z,994.35
2017-09-24T08:54:17.404Z,994.39
2017-09-24T08:55:14.689Z,994.41
2017-09-24T08:56:11.941Z,994.37
2017-09-24T08:57:09.199Z,994.36
2017-09-24T08:58:06.453Z,994.37
2017-09-24T08:59:03.728Z,994.42
2017-09-24T09:00:00.981Z,994.40
2017-09-24T09:01:00.313Z,994.39
2017-09-24T09:01:57.577Z,994.43
2017-09-24T09:02:54.842Z,994.40
2017-09-24T09:03:52.069Z,994.42
2017-09-24T09:04:49.353Z,994.40
2017-09-24T09:05:46.593Z,994.39
2017-09-24T09:06:43.837Z,994.42
2017-09-24T09:07:41.053Z,994.47
2017-09-24T09:08:38.337Z,994.48
2017-09-24T09:09:35.569Z,994.43
2017-09-24T09:10:32.852Z,994.50
2017-09-24T09:11:30.098Z,994.44
2017-09-24T09:12:27.381Z,994.47
2017-09-24T09:13:24.638Z,994.44
2017-09-24T09:14:21.896Z,994.45
2017-09-24T09:15:19.149Z,994.47
2017-09-24T09:16:16.411Z,994.50
2017-09-24T09:17:13.623Z,994.45
2017-09-24T09:18:10.869Z,994.46
2017-09-24T09:19:08.081Z,994.48
2017-09-24T09:20:05.366Z,994.47
2017-09-24T09:21:02.594Z,994.46
2017-09-24T09:21:59.837Z,994.48
2017-09-24T09:22:57.076Z,994.47
2017-09-24T09:23:54.341Z,994.46
2017-09-24T09:24:51.556Z,994.43
2017-09-24T09:25:48.911Z,994.44
2017-09-24T09:26:46.126Z,994.49
2017-09-24T09:27:43.377Z,994.48
2017-09-24T09:28:40.587Z,994.56
2017-09-24T09:29:37.851Z,994.52
2017-09-24T09:30:35.113Z,994.46
2017-09-24T09:31:32.366Z,994.45
2017-09-24T09:32:29.575Z,994.52
2017-09-24T09:33:26.838Z,994.48
2017-09-24T09:34:24.057Z,994.45
2017-09-24T09:35:21.358Z,994.48
2017-09-24T09:36:18.598Z,994.49
2017-09-24T09:37:15.882Z,994.52
2017-09-24T09:38:13.138Z,994.46
2017-09-24T09:39:10.397Z,994.44
2017-09-24T09:40:07.662Z,994.47
2017-09-24T09:41:04.966Z,994.40
2017-09-24T09:42:02.195Z,994.48
2017-09-24T09:42:59.442Z,994.43
2017-09-24T09:43:56.687Z,994.39
2017-09-24T09:44:53.966Z,994.40
2017-09-24T09:45:51.220Z,994.43
2017-09-24T09:46:48.461Z,994.41
2017-09-24T09:47:45.689Z,994.45
2017-09-24T09:48:42.945Z,994.35
2017-09-24T09:49:40.174Z,994.35
2017-09-24T09:50:37.438Z,994.36
2017-09-24T09:51:34.682Z,994.33
2017-09-24T09:52:31.950Z,994.43
2017-09-24T09:53:29.174Z,994.37
2017-09-24T09:54:26.416Z,994.36
2017-09-24T09:55:23.658Z,994.30
2017-09-24T09:56:21.024Z,994.38
2017-09-24T09:57:18.252Z,994.35
2017-09-24T09:58:15.511Z,994.35
2017-09-24T09:59:12.753Z,994.32
2017-09-24T10:00:10.009Z,994.32
2017-09-24T10:01:07.234Z,994.25
2017-09-24T10:02:04.502Z,994.23
2017-09-24T10:03:01.762Z,994.24
2017-09-24T10:03:59.037Z,994.27
2017-09-24T10:04:56.293Z,994.28
2017-09-24T10:05:53.590Z,994.28
2017-09-24T10:06:50.841Z,994.23
2017-09-24T10:07:48.097Z,994.17
2017-09-24T10:08:45.375Z,994.21
2017-09-24T10:09:42.649Z,994.22
2017-09-24T10:10:39.928Z,994.21
2017-09-24T10:11:37.181Z,994.25
2017-09-24T10:12:39.641Z,994.22
2017-09-24T10:13:37.033Z,994.24
2017-09-24T10:14:34.341Z,994.21
2017-09-24T10:15:31.710Z,994.23
2017-09-24T10:16:29.005Z,994.22
2017-09-24T10:17:26.721Z,994.19
2017-09-24T10:18:24.023Z,994.17
2017-09-24T10:19:21.374Z,994.17
2017-09-24T10:20:18.598Z,994.11
2017-09-24T10:21:15.867Z,994.19
2017-09-24T10:22:13.209Z,994.21
2017-09-24T10:23:10.499Z,994.17
2017-09-24T10:24:07.838Z,994.14
2017-09-24T10:25:05.187Z,994.19
2017-09-24T10:26:02.430Z,994.12
2017-09-24T10:27:01.784Z,994.10
2017-09-24T10:27:59.042Z,994.07
2017-09-24T10:28:56.309Z,994.07
2017-09-24T10:29:53.576Z,994.07
2017-09-24T10:30:50.846Z,993.99
2017-09-24T10:31:48.086Z,994.03
2017-09-24T10:32:45.369Z,994.03
2017-09-24T10:33:42.671Z,993.99
2017-09-24T10:34:40.034Z,993.98
2017-09-24T10:35:39.327Z,993.99
2017-09-24T10:36:36.653Z,993.98
2017-09-24T10:37:34.003Z,994.03
2017-09-24T10:38:31.265Z,993.97
2017-09-24T10:39:28.500Z,993.95
2017-09-24T10:40:25.795Z,993.96
2017-09-24T10:41:23.057Z,993.91
2017-09-24T10:42:20.324Z,993.93
2017-09-24T10:43:17.589Z,993.91
2017-09-24T10:44:14.930Z,993.94
2017-09-24T10:45:12.182Z,993.94
2017-09-24T10:46:09.433Z,993.94
2017-09-24T10:47:06.695Z,994.03
2017-09-24T10:48:03.975Z,993.97
2017-09-24T10:49:01.223Z,993.98
2017-09-24T10:49:58.494Z,993.94
2017-09-24T10:50:55.736Z,993.98
2017-09-24T10:51:53.010Z,993.92
2017-09-24T10:52:50.241Z,993.87
2017-09-24T10:53:47.532Z,993.83
2017-09-24T10:54:46.856Z,993.87
2017-09-24T10:55:44.117Z,993.82
2017-09-24T10:56:41.389Z,993.85
2017-09-24T10:57:38.634Z,993.85
2017-09-24T10:58:36.058Z,993.86
2017-09-24T10:59:33.306Z,993.85
2017-09-24T11:00:30.605Z,993.89
2017-09-24T11:01:27.853Z,993.93
2017-09-24T11:02:25.139Z,993.82
2017-09-24T11:03:22.902Z,993.82
2017-09-24T11:04:20.182Z,993.84
2017-09-24T11:05:17.513Z,993.79
2017-09-24T11:06:14.786Z,993.81
2017-09-24T11:07:12.031Z,993.83
2017-09-24T11:08:09.314Z,993.82
2017-09-24T11:09:06.607Z,993.80
2017-09-24T11:10:04.367Z,993.80
2017-09-24T11:11:01.641Z,993.78
2017-09-24T11:11:58.960Z,993.82
2017-09-24T11:12:56.190Z,993.89
2017-09-24T11:13:53.463Z,993.80
2017-09-24T11:14:50.713Z,993.77
2017-09-24T11:15:47.978Z,993.76
2017-09-24T11:16:45.228Z,993.81
2017-09-24T11:17:42.634Z,993.81
2017-09-24T11:18:39.997Z,993.77
2017-09-24T11:19:37.269Z,993.70
2017-09-24T11:20:34.500Z,993.70
2017-09-24T11:21:31.770Z,993.68
2017-09-24T11:22:29.033Z,993.72
2017-09-24T11:23:26.315Z,993.73
2017-09-24T11:24:23.588Z,993.69
2017-09-24T11:25:20.905Z,993.71
2017-09-24T11:26:18.359Z,993.77
2017-09-24T11:27:15.613Z,993.68
2017-09-24T11:28:13.230Z,993.70
2017-09-24T11:29:10.542Z,993.72
2017-09-24T11:30:07.782Z,993.72
2017-09-24T11:31:05.050Z,993.69
2017-09-24T11:32:02.306Z,993.71
2017-09-24T11:32:59.564Z,993.78
2017-09-24T11:33:56.770Z,993.73
2017-09-24T11:34:54.063Z,993.75
2017-09-24T11:35:51.307Z,993.73
2017-09-24T11:36:48.591Z,993.67
2017-09-24T11:37:46.810Z,993.67
2017-09-24T11:38:44.043Z,993.69
2017-09-24T11:39:41.306Z,993.68
2017-09-24T11:40:38.555Z,993.56
2017-09-24T11:41:35.785Z,993.66
2017-09-24T11:42:33.054Z,993.62
2017-09-24T11:43:30.293Z,993.67
2017-09-24T11:44:27.593Z,993.65
2017-09-24T11:45:24.848Z,993.62
2017-09-24T11:46:22.122Z,993.62
2017-09-24T11:47:19.353Z,993.70
2017-09-24T11:48:16.729Z,993.66
2017-09-24T11:49:13.949Z,993.72
2017-09-24T11:50:11.248Z,993.65
2017-09-24T11:51:08.477Z,993.67
2017-09-24T11:52:05.745Z,993.69
2017-09-24T11:53:02.982Z,993.74
2017-09-24T11:54:00.226Z,993.60
2017-09-24T11:54:57.471Z,993.63